Pineville, MO (64856)

5:10 AM CDT on April 01, 2015 (GMT -0500)
Brush Creek | | Change Station
CLOSE
Current Station
Personal Weather Station
Location: Noel, MO
Elevation: 1056 ft
Nearby Weather Stations

Elev 1056 ft 36.51 °N, 94.34 °W | Updated 0 second ago

Clear
Clear
55.0 °F
Feels Like 55.0 °F
N
0.0
Wind Variable Wind from SSE
Gusts 0.0 mph

Today
High -- | Low -- °F
--% Chance of Precip.
Yesterday
High -- | Low -- °F
Precip. -- in
7:03 AM 7:39 PM
Waxing Gibbous, 92% visible
Pressure 29.94 in
Visibility 10.0 miles
Clouds Few 2200 ft
Scattered Clouds 2800 ft
Mostly Cloudy 3500 ft
Dew Point 54 °F
Humidity 97%
Rainfall 0.00 in
Snow Depth Not available.
UV 0.0 out of 12
Pollen 10.70 out of 12
Air Quality Not available.
Flu Activity Not available.
METAR KVBT 010935Z AUTO 14005KT 10SM FEW022 SCT028 BKN035 14/11 A2994 RMK AO1

More Conditions Fewer Conditions

Pressure 29.94 in
Visibility 10.0 miles
Clouds Few 2200 ft
Scattered Clouds 2800 ft
Mostly Cloudy 3500 ft
Dew Point 54 °F
Humidity 97%
Rainfall 0.00 in
Snow Depth Not available.
UV 0.0 out of 12
Pollen 10.70 out of 12
Air Quality Not available.
Flu Activity Not available.
METAR KVBT 010935Z AUTO 14005KT 10SM FEW022 SCT028 BKN035 14/11 A2994 RMK AO1

More Conditions Fewer Conditions

10-Day Weather Forecast

Almanac

Astronomy

Apr. 01, 2015 Rise Set
Actual Time
Civil Twilight
Nautical Twilight
Astronomical Twilight
Moon
Length of Visible Light
Length of Day
Tomorrow will be .
, % of the Moon is Illuminated

Today's Extremes

State Highs State Lows

Community

WunderPhotos

Upload Photos

1,809,933 photos uploaded!

WunderBlogs® & News

Nearby

Air Quality

  Air Quality AQ Index Pollutant
Not available.

Snow Depth

Station Depth Elevation

Earthquake Activity

City Distance Mag. Time & Date
Minimum magnitude displayed is 2.5.

Coastal Water Temperatures

Place Temperature

Stations

Nearby Weather Stations

Station Location Temp. Windchill Dew Point Humidity Wind Precip. Elev Updated Type